Terminal Aerodrome Forecast
Issued by NWS

Home | Current Version | Previous Version | Text Only | Print | Product List | Glossary On
Versions: 1 2 3 4 5 6 7 8 9 10 11 12 13 14 15 16 17 18 19 20 21 22 23 24 25 26 27 28 29 30 31 32 33 34 35 36 37 38
000
FTUS43 KPAH 071720
TAFOWB
TAF
KOWB 071720Z 0718/0818 23010KT 3SM -TSRA BKN010CB
     FM072000 22010KT P6SM VCSH SCT011 BKN020
      TEMPO 0720/0722 4SM TSRA BKN011CB
     FM080100 22008KT 3SM TSRA BKN009CB
     FM080600 VRB04KT 2SM BR BKN005 PROB30 0806/0812 TS SCT005
      BKN015CB
     FM081400 23007KT P6SM VCTS SCT015CB BKN025=

USA.gov is the U.S. government's official web portal to all federal, state and local government web resources and services.